This is the latest recevied weather packets stored in our database for station/object EA1JAV-10. If no packets are shown the sender has not sent any weather packets the latest 10 day(s).
| Time | Temp. | Humidity | Pressure | Rain* | Wind** | Luminosity | Snow |
|---|---|---|---|---|---|---|---|
| 1778189212 | 20.56° C | 43% | 996.5 hPa | - | - | - | - |
| 1778187412 | 21.11° C | 42% | 996.3 hPa | - | - | - | - |
| 1778185612 | 21.11° C | 42% | 995.8 hPa | - | - | - | - |
| 1778183811 | 21.67° C | 42% | 995.5 hPa | - | - | - | - |
| 1778182011 | 21.67° C | 41% | 995.3 hPa | - | - | - | - |
| 1778180211 | 22.22° C | 41% | 995 hPa | - | - | - | - |
| 1778178411 | 22.22° C | 41% | 994.8 hPa | - | - | - | - |
| 1778176611 | 22.22° C | 41% | 994.8 hPa | - | - | - | - |
| 1778174811 | 22.22° C | 40% | 994.7 hPa | - | - | - | - |
| 1778173011 | 22.22° C | 40% | 994.4 hPa | - | - | - | - |
| 1778171211 | 22.22° C | 40% | 994.1 hPa | - | - | - | - |
| 1778169411 | 22.22° C | 40% | 994.3 hPa | - | - | - | - |
| 1778167610 | 21.67° C | 41% | 994.5 hPa | - | - | - | - |
| 1778165810 | 21.67° C | 42% | 994.4 hPa | - | - | - | - |
| 1778164010 | 21.11° C | 42% | 994.7 hPa | - | - | - | - |
| 1778162210 | 20.56° C | 42% | 994.9 hPa | - | - | - | - |
| 1778160410 | 20.56° C | 42% | 994.9 hPa | - | - | - | - |
| 1778158610 | 20° C | 43% | 995.2 hPa | - | - | - | - |
| 1778156810 | 19.44° C | 43% | 995.2 hPa | - | - | - | - |
| 1778155010 | 18.89° C | 44% | 995.6 hPa | - | - | - | - |
| 1778153210 | 18.33° C | 44% | 995.9 hPa | - | - | - | - |
| 1778151410 | 18.33° C | 44% | 995.9 hPa | - | - | - | - |
| 1778149610 | 17.78° C | 45% | 996 hPa | - | - | - | - |
| 1778147809 | 17.22° C | 45% | 996.2 hPa | - | - | - | - |
| 1778146010 | 17.22° C | 45% | 996.1 hPa | - | - | - | - |
* Rain since midnight (hover to see other rain measurements)
** Current wind speed in m/s (hover to see current wind gust speed)